Time;durP1;ratioP1;P1;durP2;ratioP2;P2;SDS_P1;SDS_P2;PMS_P1;PMS_P2;Temp;Humidity;BMP_temperature;BMP_pressure;BME280_temperature;BME280_humidity;BME280_pressure;Samples;Min_cycle;Max_cycle;Signal;HPM_P1;HPM_P2
2023/04/22 00:00:22;;;;;;;4.90;2.50;;;;;;;17.74;100.00;100751.13;2065988;28;20045;-71
2023/04/22 00:01:43;;;;;;;5.78;2.75;;;;;;;17.75;100.00;100758.22;2074934;28;20135;-71
2023/04/22 00:03:07;;;;;;;5.75;2.65;;;;;;;17.74;100.00;100758.25;2077005;28;20524;-71
2023/04/22 00:04:29;;;;;;;5.53;2.55;;;;;;;17.75;100.00;100752.88;2064715;28;20096;-71
2023/04/22 00:05:52;;;;;;;5.20;2.20;;;;;;;17.75;100.00;100746.66;2071210;28;20148;-71
2023/04/22 00:07:15;;;;;;;8.68;2.88;;;;;;;17.75;100.00;100750.22;2078998;28;20049;-71
2023/04/22 00:08:37;;;;;;;4.35;2.35;;;;;;;17.75;100.00;100741.31;2078005;28;20049;-71
2023/04/22 00:09:59;;;;;;;4.93;2.20;;;;;;;17.74;100.00;100756.47;2063395;28;20054;-71
2023/04/22 00:11:23;;;;;;;3.38;2.22;;;;;;;17.75;100.00;100760.00;2075995;28;20052;-71
2023/04/22 00:12:45;;;;;;;4.43;2.50;;;;;;;17.74;100.00;100761.78;2079335;28;20079;-71
2023/04/22 00:14:07;;;;;;;5.93;2.22;;;;;;;17.73;100.00;100765.38;2076608;28;20094;-71
2023/04/22 00:15:30;;;;;;;5.38;2.17;;;;;;;17.72;100.00;100760.91;2077208;28;20048;-71
2023/04/22 00:16:51;;;;;;;5.47;2.30;;;;;;;17.73;100.00;100764.47;2076815;28;20041;-71
2023/04/22 00:18:13;;;;;;;6.55;2.45;;;;;;;17.72;100.00;100765.41;2077433;28;20072;-72
2023/04/22 00:19:35;;;;;;;5.47;2.40;;;;;;;17.72;100.00;100770.75;2076460;28;20052;-71
2023/04/22 00:20:57;;;;;;;;;;;;;;;17.68;100.00;100766.34;2060705;28;20081;-71
2023/04/22 00:22:19;;;;;;;4.78;2.50;;;;;;;17.67;100.00;100775.25;2074114;28;19928;-71
2023/04/22 00:23:44;;;;;;;4.93;2.38;;;;;;;17.66;100.00;100770.81;2063375;28;20082;-72
2023/04/22 00:25:06;;;;;;;5.03;2.33;;;;;;;17.66;100.00;100776.16;2074333;28;20049;-71
2023/04/22 00:26:29;;;;;;;;;;;;;;;17.61;100.00;100775.31;2074653;28;20057;-71
2023/04/22 00:27:50;;;;;;;4.28;2.60;;;;;;;17.59;100.00;100775.31;2085551;28;19931;-71
2023/04/22 00:29:13;;;;;;;5.75;3.00;;;;;;;17.59;100.00;100775.31;2079692;28;20064;-71
2023/04/22 00:30:35;;;;;;;4.65;2.63;;;;;;;17.58;100.00;100765.56;2073071;28;20045;-71
2023/04/22 00:31:58;;;;;;;5.82;2.85;;;;;;;17.57;100.00;100769.13;2069598;28;20100;-71
2023/04/22 00:33:19;;;;;;;4.13;2.42;;;;;;;17.55;100.00;100765.59;2072076;28;20046;-71
2023/04/22 00:34:41;;;;;;;5.95;2.75;;;;;;;17.52;100.00;100763.81;2069023;28;20054;-71
2023/04/22 00:36:04;;;;;;;5.95;3.00;;;;;;;17.52;100.00;100765.63;2069064;28;20053;-71
2023/04/22 00:37:26;;;;;;;4.80;2.53;;;;;;;17.51;100.00;100764.75;2071681;28;20060;-71
2023/04/22 00:38:49;;;;;;;4.95;2.75;;;;;;;17.51;100.00;100766.53;2068280;28;20449;-71
2023/04/22 00:40:11;;;;;;;6.28;2.83;;;;;;;17.50;100.00;100765.66;2074104;28;20478;-71
2023/04/22 00:41:35;;;;;;;6.35;2.92;;;;;;;17.49;100.00;100761.22;2073665;28;20057;-71
2023/04/22 00:42:58;;;;;;;5.13;2.15;;;;;;;17.48;100.00;100762.09;2071262;28;20050;-71
2023/04/22 00:44:22;;;;;;;6.57;2.55;;;;;;;17.48;100.00;100758.56;2067676;28;20053;-71
2023/04/22 00:45:46;;;;;;;4.88;2.83;;;;;;;17.49;100.00;100761.22;2067081;28;20391;-71
2023/04/22 00:47:08;;;;;;;5.47;2.80;;;;;;;17.48;100.00;100756.78;2074052;28;20969;-72
2023/04/22 00:48:30;;;;;;;4.72;2.60;;;;;;;17.48;100.00;100753.22;2077222;28;20052;-72
2023/04/22 00:49:53;;;;;;;5.22;2.47;;;;;;;17.48;100.00;100754.09;2080110;28;20053;-71
2023/04/22 00:51:15;;;;;;;6.78;2.65;;;;;;;17.49;100.00;100749.66;2069934;28;20442;-71
2023/04/22 00:52:36;;;;;;;6.85;2.65;;;;;;;17.49;100.00;100745.19;2073656;28;20600;-71
2023/04/22 00:54:00;;;;;;;4.43;2.50;;;;;;;17.49;100.00;100745.19;2069342;28;20141;-71
2023/04/22 00:55:22;;;;;;;4.65;2.47;;;;;;;17.48;100.00;100748.75;2061165;28;20042;-72
2023/04/22 00:56:46;;;;;;;6.20;2.80;;;;;;;17.48;100.00;100753.22;2066522;28;20269;-71
2023/04/22 00:58:09;;;;;;;5.80;2.58;;;;;;;17.49;100.00;100749.66;2062753;28;20050;-71
2023/04/22 00:59:32;;;;;;;6.10;2.50;;;;;;;17.48;100.00;100747.88;2071689;28;20492;-72
2023/04/22 01:00:55;;;;;;;6.22;3.03;;;;;;;17.50;100.00;100746.97;2077434;28;20069;-71
2023/04/22 01:02:17;;;;;;;5.22;2.70;;;;;;;17.51;100.00;100748.75;2076440;28;20045;-71
2023/04/22 01:03:41;;;;;;;7.22;2.47;;;;;;;17.53;100.00;100749.56;2069215;28;20595;-72
2023/04/22 01:05:03;;;;;;;5.07;2.53;;;;;;;17.54;100.00;100745.13;2064949;28;20108;-72
2023/04/22 01:06:26;;;;;;;6.30;2.78;;;;;;;17.54;100.00;100743.34;2074888;28;20175;-71
2023/04/22 01:07:48;;;;;;;5.05;2.65;;;;;;;17.50;100.00;100744.28;2076213;28;20481;-72
2023/04/22 01:09:10;;;;;;;9.43;3.40;;;;;;;17.42;100.00;100747.97;2067392;28;20415;-71
2023/04/22 01:10:33;;;;;;;7.07;3.05;;;;;;;17.30;100.00;100749.00;2067756;28;20057;-71
2023/04/22 01:11:57;;;;;;;6.78;2.92;;;;;;;17.23;100.00;100754.44;2073443;28;20056;-71
2023/04/22 01:13:19;;;;;;;7.28;2.42;;;;;;;17.14;100.00;100742.06;2061281;28;20081;-72
2023/04/22 01:14:42;;;;;;;5.72;2.88;;;;;;;17.08;100.00;100753.69;2069629;28;20045;-72
2023/04/22 01:16:08;;;;;;;6.50;2.92;;;;;;;17.05;100.00;100759.09;2077350;28;20046;-71
2023/04/22 01:17:30;;;;;;;6.10;2.75;;;;;;;17.02;100.00;100753.75;2061405;28;20552;-71
2023/04/22 01:18:53;;;;;;;5.68;2.50;;;;;;;16.97;100.00;100755.59;2078823;28;20045;-71
2023/04/22 01:20:15;;;;;;;7.25;3.00;;;;;;;16.96;100.00;100751.16;2079484;28;20057;-71
2023/04/22 01:21:39;;;;;;;6.35;2.85;;;;;;;16.97;100.00;100755.59;2068214;28;20065;-71
2023/04/22 01:23:04;;;;;;;7.40;2.50;;;;;;;17.02;100.00;100751.09;2061443;28;20069;-71
2023/04/22 01:24:26;;;;;;;5.97;2.70;;;;;;;17.09;100.00;100749.25;2072997;28;20046;-71
2023/04/22 01:25:50;;;;;;;7.88;2.90;;;;;;;17.16;100.00;100756.28;2067129;28;20041;-71
2023/04/22 01:27:11;;;;;;;8.23;2.92;;;;;;;17.21;100.00;100753.56;2076313;28;20048;-71
2023/04/22 01:28:34;;;;;;;7.20;2.78;;;;;;;17.23;100.00;100757.09;2076857;28;20140;-72
2023/04/22 01:29:55;;;;;;;5.80;2.72;;;;;;;17.19;100.00;100758.94;2082416;28;20045;-72
2023/04/22 01:31:18;;;;;;;5.63;3.00;;;;;;;17.19;100.00;100758.94;2063669;28;20071;-72
2023/04/22 01:32:41;;;;;;;6.15;2.35;;;;;;;17.18;100.00;100759.81;2060984;28;20061;-72
2023/04/22 01:34:03;;;;;;;5.95;2.50;;;;;;;17.20;100.00;100766.00;2070331;28;20060;-72
2023/04/22 01:35:25;;;;;;;7.22;2.50;;;;;;;17.22;100.00;100758.88;2060844;28;20038;-72
2023/04/22 01:36:47;;;;;;;8.75;2.92;;;;;;;17.25;100.00;100766.84;2058428;28;20046;-72
2023/04/22 01:38:11;;;;;;;7.75;3.13;;;;;;;17.29;100.00;100765.03;2074616;28;20041;-71
2023/04/22 01:39:34;;;;;;;7.78;2.20;;;;;;;17.31;100.00;100761.44;2071163;28;20061;-72
2023/04/22 01:40:56;;;;;;;6.38;2.40;;;;;;;17.35;100.00;100767.63;2077240;28;20449;-72
2023/04/22 01:42:19;;;;;;;6.35;2.92;;;;;;;17.37;100.00;100771.16;2064701;28;20073;-72
2023/04/22 01:43:41;;;;;;;6.40;2.90;;;;;;;17.38;100.00;100768.47;2080513;28;20049;-72
2023/04/22 01:45:04;;;;;;;6.88;2.65;;;;;;;17.39;100.00;100767.53;2076860;28;20112;-71
2023/04/22 01:46:26;;;;;;;7.65;2.55;;;;;;;17.41;100.00;100764.88;2072106;28;20034;-71
2023/04/22 01:47:49;;;;;;;6.03;2.88;;;;;;;17.41;100.00;100757.75;2068583;28;20120;-71
2023/04/22 01:49:10;;;;;;;8.75;2.88;;;;;;;17.42;100.00;100756.84;2060887;28;20074;-72
2023/04/22 01:50:34;;;;;;;8.27;2.70;;;;;;;17.41;100.00;100755.06;2058297;28;20053;-71
2023/04/22 01:51:55;;;;;;;6.65;2.50;;;;;;;17.40;100.00;100749.75;2066542;28;20060;-71
2023/04/22 01:53:18;;;;;;;6.43;2.67;;;;;;;17.37;100.00;100744.47;2072585;28;20578;-71
2023/04/22 01:54:42;;;;;;;7.05;2.95;;;;;;;17.37;100.00;100744.47;2076958;28;20447;-71
2023/04/22 01:56:05;;;;;;;6.43;2.90;;;;;;;17.35;100.00;100741.81;2077340;28;20104;-71
2023/04/22 01:57:27;;;;;;;7.53;3.00;;;;;;;17.37;100.00;100748.03;2074448;28;20065;-71
2023/04/22 01:58:50;;;;;;;8.00;3.25;;;;;;;17.38;100.00;100740.91;2074723;28;20072;-72
2023/04/22 02:00:12;;;;;;;6.70;2.75;;;;;;;17.39;100.00;100742.69;2069619;28;20046;-72
2023/04/22 02:01:35;;;;;;;5.70;3.20;;;;;;;17.40;100.00;100739.06;2083312;28;20143;-71
2023/04/22 02:02:57;;;;;;;6.78;3.13;;;;;;;17.40;100.00;100737.28;2071559;28;20038;-71
2023/04/22 02:04:20;;;;;;;6.55;3.00;;;;;;;17.40;100.00;100734.63;2080155;28;20060;-71
2023/04/22 02:05:43;;;;;;;5.97;2.95;;;;;;;17.39;100.00;100732.84;2075727;28;20084;-73
2023/04/22 02:07:05;;;;;;;4.88;2.55;;;;;;;17.37;100.00;100734.69;2068759;28;20057;-71
2023/04/22 02:08:30;;;;;;;5.40;2.83;;;;;;;17.36;100.00;100743.59;2068849;28;20553;-71
2023/04/22 02:09:55;;;;;;;5.57;2.88;;;;;;;17.34;100.00;100742.72;2063601;28;20525;-71
2023/04/22 02:11:16;;;;;;;5.90;3.55;;;;;;;17.31;100.00;100750.78;2075019;28;20607;-72
2023/04/22 02:12:39;;;;;;;7.47;3.15;;;;;;;17.29;100.00;100757.00;2069423;28;20805;-71
2023/04/22 02:14:02;;;;;;;6.00;3.03;;;;;;;17.27;100.00;100764.16;2069619;28;20041;-71
2023/04/22 02:15:25;;;;;;;7.72;2.80;;;;;;;17.25;100.00;100756.19;2077073;28;20899;-71
2023/04/22 02:16:48;;;;;;;6.53;3.15;;;;;;;17.24;100.00;100756.19;2077605;28;20095;-71
2023/04/22 02:18:12;;;;;;;4.95;2.80;;;;;;;17.22;100.00;100755.31;2078890;28;20050;-71
2023/04/22 02:19:36;;;;;;;8.32;3.53;;;;;;;17.18;100.00;100756.28;2077813;28;20077;-71
2023/04/22 02:20:59;;;;;;;6.93;2.90;;;;;;;17.12;100.00;100752.78;2077375;28;20041;-71
2023/04/22 02:22:21;;;;;;;6.53;2.92;;;;;;;17.08;100.00;100750.13;2076649;28;20456;-71
2023/04/22 02:23:46;;;;;;;6.30;2.85;;;;;;;17.02;100.00;100747.53;2063915;28;20065;-71
2023/04/22 02:25:12;;;;;;;11.95;2.90;;;;;;;16.98;100.00;100746.72;2075271;28;20045;-71
2023/04/22 02:26:35;;;;;;;6.60;3.60;;;;;;;16.96;100.00;100743.16;2077759;28;20140;-71
2023/04/22 02:27:57;;;;;;;7.25;2.97;;;;;;;16.96;100.00;100744.94;2077598;28;20037;-71
2023/04/22 02:29:19;;;;;;;8.85;3.33;;;;;;;16.94;100.00;100738.72;2069901;28;20042;-71
2023/04/22 02:30:41;;;;;;;5.63;2.97;;;;;;;16.92;100.00;100738.78;2069627;28;20494;-71
2023/04/22 02:32:04;;;;;;;4.50;2.53;;;;;;;16.89;100.00;100729.91;2062117;28;20375;-71
2023/04/22 02:33:26;;;;;;;5.63;2.90;;;;;;;16.86;100.00;100725.50;2074868;28;20458;-71
2023/04/22 02:34:48;;;;;;;4.85;3.00;;;;;;;16.84;100.00;100723.75;2077514;28;20061;-71
2023/04/22 02:36:10;;;;;;;8.70;3.30;;;;;;;16.82;100.00;100722.88;2075092;28;20034;-72
2023/04/22 02:37:32;;;;;;;11.48;3.63;;;;;;;16.81;100.00;100721.09;2074205;28;20049;-71
2023/04/22 02:38:54;;;;;;;7.43;3.83;;;;;;;16.79;100.00;100721.13;2077726;28;20068;-71
2023/04/22 02:40:17;;;;;;;8.48;3.67;;;;;;;16.78;100.00;100722.03;2072713;28;20053;-72
2023/04/22 02:41:40;;;;;;;6.20;3.85;;;;;;;16.74;100.00;100722.94;2069002;28;20081;-72
2023/04/22 02:43:03;;;;;;;8.43;3.40;;;;;;;16.71;100.00;100721.22;2063324;28;20521;-72
2023/04/22 02:44:25;;;;;;;7.55;3.67;;;;;;;16.69;100.00;100717.66;2066286;28;20402;-73
2023/04/22 02:45:46;;;;;;;7.80;3.88;;;;;;;16.66;100.00;100725.72;2074680;28;20053;-74
2023/04/22 02:47:10;;;;;;;10.15;3.90;;;;;;;16.65;100.00;100728.38;2075435;28;20053;-73
2023/04/22 02:48:31;;;;;;;7.57;3.28;;;;;;;16.63;100.00;100725.72;2074892;28;20137;-71
2023/04/22 02:49:53;;;;;;;11.63;3.63;;;;;;;16.60;100.00;100723.13;2077866;28;20493;-72
2023/04/22 02:51:15;;;;;;;7.07;3.85;;;;;;;16.59;100.00;100723.09;2069852;28;20466;-73
2023/04/22 02:52:37;;;;;;;7.90;3.45;;;;;;;16.59;100.00;100723.09;2066802;28;20046;-72
2023/04/22 02:53:59;;;;;;;8.65;3.70;;;;;;;16.59;100.00;100723.09;2074937;28;20057;-72
2023/04/22 02:55:24;;;;;;;8.77;3.65;;;;;;;16.61;100.00;100729.28;2080759;28;20449;-73
2023/04/22 02:56:45;;;;;;;7.95;3.25;;;;;;;16.58;100.00;100718.66;2070869;28;20061;-72
2023/04/22 02:58:08;;;;;;;5.22;3.00;;;;;;;16.54;100.00;100723.09;2070687;28;20494;-72
2023/04/22 02:59:30;;;;;;;8.43;3.10;;;;;;;16.53;100.00;100723.16;2078363;28;20099;-72
2023/04/22 03:00:52;;;;;;;8.18;3.55;;;;;;;16.55;100.00;100726.66;2079902;28;20061;-72
2023/04/22 03:02:14;;;;;;;7.00;3.30;;;;;;;16.56;100.00;100721.31;2069459;28;20054;-72
2023/04/22 03:03:57;;;;;;;6.22;3.10;;;;;;;16.54;100.00;100719.59;2063138;28;20053;-72
2023/04/22 03:05:20;;;;;;;9.65;3.90;;;;;;;16.50;100.00;100729.38;2069551;28;20042;-71
2023/04/22 03:06:43;;;;;;;7.55;3.40;;;;;;;16.43;100.00;100729.44;2059212;28;20325;-71
2023/04/22 03:08:04;;;;;;;5.30;3.10;;;;;;;16.36;100.00;100728.59;2064687;28;20577;-71
2023/04/22 03:09:27;;;;;;;9.55;3.63;;;;;;;16.33;100.00;100728.66;2075133;28;20033;-72
2023/04/22 03:10:50;;;;;;;6.68;3.20;;;;;;;16.30;100.00;100729.56;2068766;28;20457;-71
2023/04/22 03:12:12;;;;;;;9.20;3.10;;;;;;;16.30;100.00;100723.34;2066399;28;20038;-72
2023/04/22 03:13:35;;;;;;;8.52;3.35;;;;;;;16.33;100.00;100728.66;2067552;28;20058;-71
2023/04/22 03:14:56;;;;;;;6.82;3.05;;;;;;;16.39;100.00;100733.03;2083414;28;20087;-71
2023/04/22 03:16:23;;;;;;;6.70;3.40;;;;;;;16.44;100.00;100740.09;2071860;28;20100;-70
2023/04/22 03:17:46;;;;;;;8.15;3.83;;;;;;;16.47;100.00;100741.84;2081654;28;20108;-71
2023/04/22 03:19:10;;;;;;;5.50;3.17;;;;;;;16.50;100.00;100747.16;2070665;28;20057;-72
2023/04/22 03:20:31;;;;;;;6.10;3.60;;;;;;;16.52;100.00;100751.56;2061822;28;20654;-72
2023/04/22 03:21:55;;;;;;;7.18;3.20;;;;;;;16.53;100.00;100752.47;2063324;28;20053;-72
2023/04/22 03:23:17;;;;;;;7.22;3.65;;;;;;;16.56;100.00;100758.63;2066802;28;20104;-72
2023/04/22 03:24:39;;;;;;;7.53;3.58;;;;;;;16.57;100.00;100760.41;2066761;28;20655;-72
2023/04/22 03:26:06;;;;;;;9.30;4.30;;;;;;;16.58;100.00;100762.19;2071838;28;20086;-72
2023/04/22 03:27:27;;;;;;;8.85;4.13;;;;;;;16.60;100.00;100767.53;2069753;28;20111;-72
2023/04/22 03:28:50;;;;;;;10.80;3.83;;;;;;;16.62;100.00;100763.94;2075450;28;20052;-72
2023/04/22 03:30:11;;;;;;;8.40;3.78;;;;;;;16.62;100.00;100761.28;2072130;28;20049;-72
2023/04/22 03:31:34;;;;;;;7.90;3.72;;;;;;;16.63;100.00;100765.72;2064158;28;20044;-72
2023/04/22 03:32:56;;;;;;;7.60;3.30;;;;;;;16.65;100.00;100763.94;2066085;28;20050;-72
2023/04/22 03:34:29;;;;;;;8.18;3.45;;;;;;;16.64;100.00;100772.81;2062913;28;20046;-71
2023/04/22 03:35:53;;;;;;;8.98;3.60;;;;;;;16.66;100.00;100775.47;2067207;28;20042;-71
2023/04/22 03:37:16;;;;;;;7.65;3.45;;;;;;;16.65;100.00;100768.38;2062223;28;20054;-72
2023/04/22 03:38:38;;;;;;;6.68;3.20;;;;;;;16.63;100.00;100776.38;2067150;28;20046;-72
2023/04/22 03:40:00;;;;;;;9.30;3.90;;;;;;;16.61;100.00;100774.59;2061095;28;20046;-72
2023/04/22 03:41:26;;;;;;;7.90;3.50;;;;;;;16.60;100.00;100783.53;2059481;28;20050;-72
2023/04/22 03:42:47;;;;;;;7.00;3.35;;;;;;;16.58;100.00;100786.16;2076114;28;20167;-73
2023/04/22 03:44:11;;;;;;;8.70;3.75;;;;;;;16.56;100.00;100785.28;2069853;28;20153;-72
2023/04/22 03:45:35;;;;;;;9.00;3.45;;;;;;;16.55;100.00;100788.84;2067347;28;20042;-73
2023/04/22 03:47:17;;;;;;;7.18;3.63;;;;;;;16.54;100.00;100787.06;2073071;28;20050;-72
2023/04/22 03:48:44;;;;;;;6.22;3.38;;;;;;;16.56;100.00;100795.06;2069759;28;20038;-72
2023/04/22 03:50:16;;;;;;;6.57;3.63;;;;;;;16.56;100.00;100789.72;2068477;28;20089;-73
2023/04/22 03:51:37;;;;;;;6.30;3.38;;;;;;;16.54;100.00;100789.72;2066628;28;20061;-72
2023/04/22 03:53:05;;;;;;;7.68;3.22;;;;;;;16.54;100.00;100797.72;2073714;28;20041;-71
2023/04/22 03:54:27;;;;;;;9.13;3.60;;;;;;;16.54;100.00;100792.41;2069712;28;20050;-72
2023/04/22 03:55:51;;;;;;;6.20;3.35;;;;;;;16.55;100.00;100802.16;2068950;28;20050;-72
2023/04/22 03:57:14;;;;;;;7.55;3.30;;;;;;;16.55;100.00;100807.50;2062056;28;20153;-72
2023/04/22 03:58:36;;;;;;;7.15;3.60;;;;;;;16.57;100.00;100802.16;2075212;28;20145;-72
2023/04/22 04:00:01;;;;;;;6.60;3.47;;;;;;;16.57;100.00;100803.06;2063126;28;20049;-71
2023/04/22 04:01:23;;;;;;;6.22;3.33;;;;;;;16.59;100.00;100814.59;2069308;28;20050;-71
2023/04/22 04:02:47;;;;;;;8.93;3.78;;;;;;;16.64;100.00;100803.91;2068223;28;20144;-72
2023/04/22 04:04:12;;;;;;;10.00;3.88;;;;;;;16.69;100.00;100802.09;2067042;28;20052;-72
2023/04/22 04:05:45;;;;;;;6.97;3.67;;;;;;;16.71;100.00;100814.53;2069790;28;20052;-72
2023/04/22 04:07:08;;;;;;;6.78;3.60;;;;;;;16.75;100.00;100807.38;2066865;28;20049;-72
2023/04/22 04:08:29;;;;;;;6.70;3.35;;;;;;;16.80;100.00;100810.00;2064965;28;20038;-72
2023/04/22 04:09:51;;;;;;;6.53;3.28;;;;;;;16.82;100.00;100806.41;2066265;28;20058;-72
2023/04/22 04:11:13;;;;;;;6.60;3.35;;;;;;;16.84;100.00;100804.63;2069476;28;20145;-72
2023/04/22 04:12:37;;;;;;;5.68;2.92;;;;;;;16.87;100.00;100812.56;2077411;28;20080;-72
2023/04/22 04:13:58;;;;;;;7.57;3.35;;;;;;;16.90;100.00;100817.91;2068761;28;20091;-72
2023/04/22 04:15:25;;;;;;;5.80;2.72;;;;;;;16.92;100.00;100813.44;2062001;28;20514;-72
2023/04/22 04:16:48;;;;;;;9.63;3.58;;;;;;;16.94;100.00;100824.06;2068042;28;20050;-72
2023/04/22 04:18:20;;;;;;;;;;;;;;;16.93;100.00;100819.66;2070622;28;20065;-73
2023/04/22 04:19:42;;;;;;;7.47;3.10;;;;;;;16.92;100.00;100828.56;2066012;28;20009;-72
2023/04/22 04:21:05;;;;;;;7.57;3.05;;;;;;;16.92;100.00;100824.13;2063576;28;20042;-72
2023/04/22 04:22:30;;;;;;;8.38;3.35;;;;;;;16.93;100.00;100833.00;2067736;28;20617;-71
2023/04/22 04:23:55;;;;;;;6.43;3.00;;;;;;;16.92;100.00;100833.88;2065660;28;20128;-72
2023/04/22 04:25:21;;;;;;;8.45;2.70;;;;;;;16.90;100.00;100830.34;2061634;28;20061;-72
2023/04/22 04:26:43;;;;;;;7.45;3.33;;;;;;;16.90;100.00;100827.69;2061399;28;20507;-72
2023/04/22 04:28:12;;;;;;;7.90;3.30;;;;;;;16.87;100.00;100828.56;2063399;28;20509;-72
2023/04/22 04:29:34;;;;;;;9.07;3.45;;;;;;;16.87;100.00;100835.72;2067247;28;20103;-72
2023/04/22 04:31:05;;;;;;;8.05;2.95;;;;;;;16.88;100.00;100832.13;2073921;28;20034;-72
2023/04/22 04:32:27;;;;;;;6.65;2.70;;;;;;;16.89;100.00;100833.91;2077541;28;20081;-72
2023/04/22 04:33:49;;;;;;;8.77;3.13;;;;;;;16.93;100.00;100844.56;2060857;28;20052;-72
2023/04/22 04:35:13;;;;;;;7.60;2.80;;;;;;;17.02;100.00;100855.13;2065791;28;20045;-72
2023/04/22 04:36:38;;;;;;;7.60;3.47;;;;;;;17.08;100.00;100854.16;2069749;28;20143;-73
2023/04/22 04:38:13;;;;;;;5.00;3.47;;;;;;;17.12;100.00;100848.81;2069771;28;20050;-72
2023/04/22 04:39:36;;;;;;;7.00;3.50;;;;;;;17.18;100.00;100847.88;2068148;28;20049;-72
2023/04/22 04:41:00;;;;;;;11.18;3.85;;;;;;;17.26;100.00;100856.69;2069163;28;20069;-72
2023/04/22 04:42:23;;;;;;;8.88;3.88;;;;;;;17.32;100.00;100858.41;2064290;28;20041;-72
2023/04/22 04:43:55;;;;;;;7.47;3.60;;;;;;;17.35;100.00;100861.00;2070327;28;20053;-72
2023/04/22 04:45:22;;;;;;;6.65;3.55;;;;;;;17.37;100.00;100867.22;2067238;28;20056;-72
2023/04/22 04:46:45;;;;;;;6.32;3.17;;;;;;;17.37;100.00;100865.44;2064573;28;20132;-72
2023/04/22 04:48:07;;;;;;;9.23;3.10;;;;;;;17.35;100.00;100869.91;2066505;28;20045;-72
2023/04/22 04:49:32;;;;;;;7.00;3.30;;;;;;;17.32;100.00;100869.06;2066842;28;20050;-73
2023/04/22 04:50:57;;;;;;;6.63;3.60;;;;;;;17.29;100.00;100869.09;2067084;28;20052;-72
2023/04/22 04:52:21;;;;;;;6.88;3.38;;;;;;;17.27;100.00;100870.88;2063886;28;20465;-72
2023/04/22 04:53:44;;;;;;;7.30;3.60;;;;;;;17.29;100.00;100874.44;2058370;28;20076;-72
2023/04/22 04:55:06;;;;;;;7.60;3.60;;;;;;;17.33;100.00;100882.38;2074589;28;20050;-71
2023/04/22 04:56:31;;;;;;;6.25;3.40;;;;;;;17.38;100.00;100887.69;2067333;28;20033;-72
2023/04/22 04:57:52;;;;;;;11.15;4.47;;;;;;;17.42;100.00;100892.97;2066181;28;20057;-72
2023/04/22 04:59:16;;;;;;;7.35;3.88;;;;;;;17.45;100.00;100889.41;2060816;28;20129;-72
2023/04/22 05:00:37;;;;;;;7.72;3.60;;;;;;;17.46;100.00;100899.16;2064030;28;20062;-72
2023/04/22 05:02:00;;;;;;;7.45;3.13;;;;;;;17.46;100.00;100908.03;2068978;28;20068;-71
2023/04/22 05:03:23;;;;;;;7.50;3.13;;;;;;;17.46;100.00;100910.72;2064015;28;20045;-72
2023/04/22 05:04:46;;;;;;;9.80;3.78;;;;;;;17.47;100.00;100914.25;2064637;28;20046;-72
2023/04/22 05:06:07;;;;;;;9.20;3.83;;;;;;;17.48;100.00;100918.72;2073681;28;20835;-72
2023/04/22 05:07:31;;;;;;;6.68;3.28;;;;;;;17.48;100.00;100921.38;2065651;28;20416;-72
2023/04/22 05:08:54;;;;;;;8.60;3.67;;;;;;;17.46;100.00;100923.16;2072177;28;20498;-72
2023/04/22 05:10:16;;;;;;;8.13;3.35;;;;;;;17.44;100.00;100923.22;2069443;28;20073;-72
2023/04/22 05:11:39;;;;;;;7.28;3.38;;;;;;;17.42;100.00;100919.66;2074832;28;20526;-72
2023/04/22 05:13:06;;;;;;;8.98;3.30;;;;;;;17.41;100.00;100925.88;2068629;28;20049;-72
2023/04/22 05:14:31;;;;;;;8.48;3.45;;;;;;;17.41;100.00;100923.22;2073232;28;20045;-72
2023/04/22 05:15:52;;;;;;;10.05;3.92;;;;;;;17.39;100.00;100927.69;2069371;28;20099;-72
2023/04/22 05:17:15;;;;;;;9.07;3.70;;;;;;;17.37;100.00;100923.28;2074446;28;20061;-73
2023/04/22 05:18:36;;;;;;;9.38;3.75;;;;;;;17.36;100.00;100932.19;2069020;28;20046;-72
2023/04/22 05:20:02;;;;;;;9.20;3.38;;;;;;;17.33;100.00;100932.19;2065735;28;20072;-72
2023/04/22 05:21:24;;;;;;;9.02;3.10;;;;;;;17.35;100.00;100933.97;2066249;28;20041;-72
2023/04/22 05:22:46;;;;;;;7.80;3.05;;;;;;;17.39;100.00;100937.50;2072376;28;20053;-72
2023/04/22 05:24:09;;;;;;;9.45;3.08;;;;;;;17.44;100.00;100941.00;2070607;28;20496;-72
2023/04/22 05:25:31;;;;;;;7.18;3.40;;;;;;;17.47;100.00;100951.63;2066556;28;20375;-72
2023/04/22 05:27:00;;;;;;;9.15;3.13;;;;;;;17.50;100.00;100951.63;2067009;28;20413;-72
2023/04/22 05:28:24;;;;;;;8.32;3.45;;;;;;;17.51;100.00;100962.28;2075655;28;20494;-72
2023/04/22 05:29:50;;;;;;;7.30;2.90;;;;;;;17.55;100.00;100973.81;2077737;28;20049;-72
2023/04/22 05:31:18;;;;;;;8.77;3.05;;;;;;;17.56;100.00;100972.91;2067663;28;20419;-72
2023/04/22 05:32:39;;;;;;;8.05;3.28;;;;;;;17.61;100.00;100971.09;2076121;28;20107;-72
2023/04/22 05:34:02;;;;;;;13.23;4.35;;;;;;;17.65;100.00;100975.53;2071576;28;20046;-73
2023/04/22 05:35:23;;;;;;;8.10;3.20;;;;;;;17.70;100.00;100979.03;2066604;28;20049;-72
2023/04/22 05:36:46;;;;;;;9.23;3.65;;;;;;;17.75;100.00;100976.31;2068191;28;20054;-72
2023/04/22 05:38:09;;;;;;;8.07;3.65;;;;;;;17.83;100.00;100985.13;2069213;28;20054;-72
2023/04/22 05:39:33;;;;;;;9.23;3.63;;;;;;;17.92;100.00;100979.69;2064940;28;20050;-72
2023/04/22 05:40:58;;;;;;;5.93;3.20;;;;;;;18.04;100.00;100984.91;2063461;28;20144;-72
2023/04/22 05:42:19;;;;;;;8.80;3.47;;;;;;;18.16;100.00;100982.09;2072487;28;20050;-72
2023/04/22 05:43:42;;;;;;;6.50;2.83;;;;;;;18.26;100.00;100981.06;2069830;28;20050;-73
2023/04/22 05:45:12;;;;;;;12.18;3.65;;;;;;;18.39;100.00;100986.25;2063366;28;20047;-72
2023/04/22 05:46:35;;;;;;;8.02;3.20;;;;;;;18.46;100.00;100978.13;2062934;28;20053;-72
2023/04/22 05:47:58;;;;;;;6.75;3.25;;;;;;;18.55;100.00;100983.41;2067868;28;20144;-72
2023/04/22 05:49:24;;;;;;;9.45;3.40;;;;;;;18.66;100.00;100985.91;2063165;28;20039;-72
2023/04/22 05:51:19;;;;;;;12.02;4.40;;;;;;;18.82;100.00;100975.91;2072937;28;20140;-73
2023/04/22 05:52:40;;;;;;;9.02;3.00;;;;;;;18.95;100.00;100980.16;2062447;28;20092;-72
2023/04/22 05:54:08;;;;;;;6.75;3.10;;;;;;;19.07;100.00;100980.84;2068969;28;20489;-72
2023/04/22 05:55:31;;;;;;;9.48;3.10;;;;;;;19.18;100.00;100975.31;2062557;28;20038;-73
2023/04/22 05:56:53;;;;;;;5.47;3.22;;;;;;;19.27;100.00;100979.66;2068185;28;20049;-72
2023/04/22 05:58:15;;;;;;;5.95;2.90;;;;;;;19.38;100.00;100981.22;2067412;28;20126;-72
2023/04/22 05:59:57;;;;;;;6.88;2.75;;;;;;;19.47;100.00;100970.41;2071985;28;20046;-72
2023/04/22 06:01:20;;;;;;;6.72;2.80;;;;;;;19.57;100.00;100971.09;2067768;28;20077;-73
2023/04/22 06:02:51;;;;;;;5.28;2.50;;;;;;;19.68;100.00;100963.78;2070490;28;20081;-72
2023/04/22 06:04:14;;;;;;;4.88;2.25;;;;;;;19.80;100.00;100960.88;2068873;28;20095;-72
2023/04/22 06:05:35;;;;;;;4.88;2.65;;;;;;;19.91;100.00;100949.94;2068102;28;20085;-72
2023/04/22 06:06:58;;;;;;;5.03;2.05;;;;;;;19.98;100.00;100945.31;2066510;28;20136;-72
2023/04/22 06:08:19;;;;;;;7.50;2.70;;;;;;;20.01;100.00;100938.13;2075083;28;20099;-73
2023/04/22 06:09:42;;;;;;;6.38;3.20;;;;;;;20.04;100.00;100946.09;2072152;28;20196;-72
2023/04/22 06:11:03;;;;;;;7.47;3.22;;;;;;;20.02;100.00;100942.53;2075923;28;20076;-72
2023/04/22 06:12:28;;;;;;;5.97;3.25;;;;;;;20.02;100.00;100944.38;2070905;28;20393;-72
2023/04/22 06:13:51;;;;;;;6.45;2.95;;;;;;;19.99;100.00;100937.25;2071563;28;20521;-72
2023/04/22 06:15:14;;;;;;;7.40;3.72;;;;;;;19.95;100.00;100938.25;2075459;28;20429;-73
2023/04/22 06:16:38;;;;;;;5.68;3.35;;;;;;;19.89;100.00;100938.34;2068084;28;20128;-72
2023/04/22 06:18:01;;;;;;;8.38;3.22;;;;;;;19.88;100.00;100940.16;2067650;28;20129;-72
2023/04/22 06:19:24;;;;;;;7.00;3.08;;;;;;;19.89;100.00;100931.19;2069941;28;20079;-73
2023/04/22 06:20:46;;;;;;;8.38;3.50;;;;;;;19.95;100.00;100927.53;2069571;28;20180;-72
2023/04/22 06:22:08;;;;;;;11.75;5.53;;;;;;;20.01;100.00;100926.53;2069703;28;20069;-72
2023/04/22 06:23:31;;;;;;;11.98;5.90;;;;;;;20.08;100.00;100930.84;2075961;28;20096;-73